createdAt,value
2019-05-10T00:04:28.590Z,4.42
2019-05-10T00:09:37.735Z,3.36
2019-05-10T00:14:46.942Z,4.06
2019-05-10T00:19:56.035Z,4.31
2019-05-10T00:25:05.402Z,3.11
2019-05-10T00:30:14.410Z,3.30
2019-05-10T00:35:23.699Z,3.20
2019-05-10T00:40:32.789Z,1.98
2019-05-10T00:45:41.915Z,2.58
2019-05-10T00:50:51.170Z,2.01
2019-05-10T00:56:00.388Z,2.24
2019-05-10T01:01:09.470Z,1.87
2019-05-10T01:06:18.667Z,1.79
2019-05-10T01:11:27.771Z,1.38
2019-05-10T01:16:36.929Z,1.61
2019-05-10T01:21:46.048Z,2.55
2019-05-10T01:26:55.216Z,2.19
2019-05-10T01:32:04.278Z,2.37
2019-05-10T01:37:13.488Z,1.82
2019-05-10T01:42:22.587Z,2.09
2019-05-10T01:47:31.850Z,1.85
2019-05-10T01:52:40.931Z,1.81
2019-05-10T01:57:54.451Z,1.97
2019-05-10T02:02:53.506Z,2.63
2019-05-10T02:08:02.690Z,2.44
2019-05-10T02:13:11.785Z,2.49
2019-05-10T02:18:20.931Z,1.81
2019-05-10T02:23:30.002Z,1.66
2019-05-10T02:28:39.250Z,2.20
2019-05-10T02:33:48.218Z,1.85
2019-05-10T02:38:57.411Z,2.46
2019-05-10T02:44:06.521Z,1.81
2019-05-10T02:49:15.736Z,1.66
2019-05-10T02:54:24.842Z,1.06
2019-05-10T02:59:33.973Z,1.17
2019-05-10T03:04:43.079Z,1.43
2019-05-10T03:09:52.227Z,1.36
2019-05-10T03:15:01.326Z,1.32
2019-05-10T03:20:10.617Z,1.29
2019-05-10T03:25:19.721Z,0.93
2019-05-10T03:30:30.577Z,0.95
2019-05-10T03:35:29.611Z,1.72
2019-05-10T03:40:38.811Z,1.50
2019-05-10T03:45:47.900Z,1.90
2019-05-10T03:50:57.103Z,2.00
2019-05-10T03:56:06.273Z,1.81
2019-05-10T04:01:15.395Z,1.51
2019-05-10T04:06:24.469Z,1.84
2019-05-10T04:11:33.678Z,2.15
2019-05-10T04:16:42.735Z,1.95
2019-05-10T04:21:52.002Z,2.22
2019-05-10T04:27:01.093Z,1.72
2019-05-10T04:32:10.414Z,2.42
2019-05-10T04:37:19.487Z,1.48
2019-05-10T04:42:28.845Z,2.23
2019-05-10T04:47:37.921Z,2.59
2019-05-10T04:52:47.050Z,2.66
2019-05-10T04:57:56.202Z,2.44
2019-05-10T05:03:05.286Z,1.97
2019-05-10T05:08:14.375Z,2.53
2019-05-10T05:13:23.514Z,2.20
2019-05-10T05:18:32.611Z,1.94
2019-05-10T05:23:41.742Z,2.08
2019-05-10T05:28:50.878Z,1.80
2019-05-10T05:34:04.933Z,1.42
2019-05-10T05:39:08.745Z,1.49
2019-05-10T05:44:23.781Z,1.67
2019-05-10T05:49:26.758Z,1.91
2019-05-10T05:54:35.944Z,2.15
2019-05-10T05:59:48.625Z,1.95
2019-05-10T06:04:53.722Z,1.75
2019-05-10T06:10:02.827Z,1.57
2019-05-10T06:15:12.103Z,1.63
2019-05-10T06:20:21.296Z,2.10
2019-05-10T06:25:39.213Z,1.66
2019-05-10T06:30:39.071Z,1.84
2019-05-10T06:35:48.515Z,2.30
2019-05-10T06:40:57.726Z,1.86
2019-05-10T06:46:06.850Z,2.55
2019-05-10T06:51:15.927Z,2.13
2019-05-10T06:56:25.266Z,2.41
2019-05-10T07:01:38.128Z,2.45
2019-05-10T07:06:43.040Z,2.61
2019-05-10T07:11:52.132Z,2.76
2019-05-10T07:17:02.626Z,2.55
2019-05-10T07:22:09.961Z,2.58
2019-05-10T07:27:19.275Z,2.55
2019-05-10T07:32:28.390Z,2.25
2019-05-10T07:37:37.549Z,1.84
2019-05-10T07:42:47.156Z,2.08
2019-05-10T07:47:55.371Z,2.23
2019-05-10T07:53:04.465Z,2.54
2019-05-10T07:58:13.741Z,2.18
2019-05-10T08:03:23.810Z,2.29
2019-05-10T08:08:31.499Z,2.22
2019-05-10T08:13:40.636Z,2.07
2019-05-10T08:18:49.987Z,2.49
2019-05-10T08:24:03.902Z,2.00
2019-05-10T08:29:12.338Z,2.34
2019-05-10T08:34:16.212Z,2.18
2019-05-10T08:39:25.484Z,2.22
2019-05-10T08:44:34.599Z,1.67
2019-05-10T08:49:56.045Z,1.95
2019-05-10T08:54:55.004Z,1.64
2019-05-10T09:00:07.094Z,1.37
2019-05-10T09:05:12.252Z,1.50
2019-05-10T09:10:18.486Z,1.86
2019-05-10T09:15:27.580Z,1.66
2019-05-10T09:20:36.877Z,1.47
2019-05-10T09:25:46.023Z,1.41
2019-05-10T09:31:00.678Z,2.10
2019-05-10T09:36:03.803Z,1.50
2019-05-10T09:41:12.929Z,2.13
2019-05-10T09:46:22.911Z,1.96
2019-05-10T09:51:33.125Z,1.80
2019-05-10T09:56:44.385Z,1.75
2019-05-10T10:01:49.254Z,2.08
2019-05-10T10:06:52.539Z,1.82
2019-05-10T10:12:00.922Z,1.66
2019-05-10T10:17:08.110Z,1.91
2019-05-10T10:22:14.448Z,2.24
2019-05-10T10:27:26.017Z,1.54
2019-05-10T10:32:34.888Z,2.18
2019-05-10T10:37:41.231Z,2.76
2019-05-10T10:42:50.440Z,1.86
2019-05-10T10:48:02.493Z,1.48
2019-05-10T10:53:08.417Z,2.34
2019-05-10T10:58:18.575Z,1.60
2019-05-10T11:03:30.523Z,2.35
2019-05-10T11:08:34.854Z,1.78
2019-05-10T11:13:45.833Z,2.22
2019-05-10T11:18:52.842Z,1.48
2019-05-10T11:24:01.998Z,1.58
2019-05-10T11:29:15.857Z,1.70
2019-05-10T11:34:21.617Z,1.58
2019-05-10T11:39:33.250Z,2.05
2019-05-10T11:44:41.440Z,1.78
2019-05-10T11:49:45.983Z,1.83
2019-05-10T11:54:55.318Z,1.96
2019-05-10T12:00:04.420Z,2.51
2019-05-10T12:05:20.004Z,2.05
2019-05-10T12:15:31.805Z,1.89
2019-05-10T12:20:54.051Z,2.19
2019-05-10T12:26:18.752Z,1.52
2019-05-10T12:26:27.549Z,2.01
2019-05-10T12:30:56.818Z,2.09
2019-05-10T12:36:13.503Z,1.84
2019-05-10T12:41:14.630Z,2.12
2019-05-10T12:46:23.792Z,2.06
2019-05-10T12:51:32.976Z,1.47
2019-05-10T12:56:44.136Z,1.61
2019-05-10T13:01:50.914Z,1.65
2019-05-10T13:07:00.037Z,2.26
2019-05-10T13:12:09.221Z,2.11
2019-05-10T13:17:19.323Z,1.89
2019-05-10T13:22:18.446Z,1.62
2019-05-10T13:27:27.578Z,1.79
2019-05-10T13:32:36.751Z,2.26
2019-05-10T13:37:46.016Z,2.10
2019-05-10T13:42:55.144Z,2.38
2019-05-10T13:48:04.424Z,2.36
2019-05-10T13:53:20.726Z,2.22
2019-05-10T13:58:22.299Z,2.11
2019-05-10T14:03:43.178Z,2.36
2019-05-10T14:08:42.841Z,2.22
2019-05-10T14:13:48.771Z,2.69
2019-05-10T14:18:58.003Z,3.72
2019-05-10T14:24:09.004Z,3.60
2019-05-10T14:29:15.884Z,4.75
2019-05-10T14:34:24.999Z,18.53
2019-05-10T14:39:34.210Z,6.96
2019-05-10T14:44:43.337Z,9.16
2019-05-10T14:49:52.482Z,19.01
2019-05-10T14:55:01.601Z,37.09
2019-05-10T15:00:10.891Z,22.87
2019-05-10T15:05:19.962Z,17.81
2019-05-10T15:10:33.158Z,17.78
2019-05-10T15:15:38.771Z,8.78
2019-05-10T15:20:46.620Z,5.73
2019-05-10T15:25:57.674Z,5.47
2019-05-10T15:31:04.448Z,4.77
2019-05-10T15:36:13.630Z,4.20
2019-05-10T15:41:24.060Z,3.38
2019-05-10T15:46:39.242Z,3.34
2019-05-10T15:51:41.223Z,3.64
2019-05-10T15:56:50.344Z,5.03
2019-05-10T16:01:59.715Z,7.25
2019-05-10T16:07:09.324Z,7.33
2019-05-10T16:12:17.752Z,6.64
2019-05-10T16:17:26.923Z,4.69
2019-05-10T16:22:36.180Z,6.27
2019-05-10T16:27:45.273Z,2.79
2019-05-10T16:32:54.542Z,3.37
2019-05-10T16:38:03.684Z,2.59
2019-05-10T16:43:14.867Z,2.83
2019-05-10T16:48:21.477Z,2.65
2019-05-10T16:53:31.475Z,2.35
2019-05-10T16:58:42.146Z,2.21
2019-05-10T17:03:41.290Z,2.61
2019-05-10T17:08:50.404Z,2.04
2019-05-10T17:13:59.734Z,2.47
2019-05-10T17:19:08.841Z,2.22
2019-05-10T17:24:18.662Z,2.56
2019-05-10T17:29:26.706Z,1.92
2019-05-10T17:34:36.787Z,1.91
2019-05-10T17:39:35.843Z,2.12
2019-05-10T17:44:45.075Z,2.51
2019-05-10T17:49:54.147Z,2.01
2019-05-10T17:55:03.571Z,3.12
2019-05-10T18:00:12.660Z,2.26
2019-05-10T18:05:21.813Z,2.10
2019-05-10T18:10:30.936Z,1.95
2019-05-10T18:15:40.167Z,2.61
2019-05-10T18:20:49.422Z,2.93
2019-05-10T18:26:00.219Z,2.57
2019-05-10T18:31:07.171Z,2.78
2019-05-10T18:36:16.319Z,2.40
2019-05-10T18:41:25.457Z,2.72
2019-05-10T18:46:34.607Z,2.86
2019-05-10T18:51:43.715Z,2.26
2019-05-10T18:56:52.852Z,2.82
2019-05-10T19:02:01.967Z,4.41
2019-05-10T19:07:11.150Z,2.61
2019-05-10T19:12:22.630Z,2.55
2019-05-10T19:17:28.985Z,2.74
2019-05-10T19:22:41.343Z,2.52
2019-05-10T19:27:50.859Z,2.36
2019-05-10T19:32:56.829Z,2.62
2019-05-10T19:38:04.347Z,2.72
2019-05-10T19:43:15.201Z,2.42
2019-05-10T19:48:22.234Z,2.85
2019-05-10T19:53:31.329Z,3.54
2019-05-10T19:58:40.539Z,3.36
2019-05-10T20:03:49.644Z,3.75
2019-05-10T20:08:59.938Z,3.13
2019-05-10T20:13:58.996Z,3.14
2019-05-10T20:19:09.345Z,3.22
2019-05-10T20:24:16.815Z,3.11
2019-05-10T20:29:25.976Z,3.09
2019-05-10T20:34:35.316Z,2.79
2019-05-10T20:39:44.464Z,3.49
2019-05-10T20:45:06.912Z,3.82
2019-05-10T20:50:02.407Z,3.28
2019-05-10T20:55:11.567Z,3.70
2019-05-10T21:00:23.898Z,6.14
2019-05-10T21:05:29.262Z,3.80
2019-05-10T21:10:38.555Z,4.21
2019-05-10T21:15:47.650Z,4.10
2019-05-10T21:20:56.971Z,3.65
2019-05-10T21:26:06.076Z,3.94
2019-05-10T21:31:15.270Z,4.93
2019-05-10T21:36:24.810Z,3.57
2019-05-10T21:41:33.251Z,3.85
2019-05-10T21:46:42.308Z,3.62
2019-05-10T21:51:51.550Z,4.09
2019-05-10T21:57:00.636Z,4.52
2019-05-10T22:02:09.815Z,4.80
2019-05-10T22:07:18.890Z,3.92
2019-05-10T22:12:28.058Z,3.51
2019-05-10T22:17:37.099Z,5.70
2019-05-10T22:22:46.278Z,3.97
2019-05-10T22:27:55.332Z,3.66
2019-05-10T22:33:04.530Z,4.21
2019-05-10T22:38:13.647Z,3.74
2019-05-10T22:43:22.886Z,3.31
2019-05-10T22:48:31.979Z,3.69
2019-05-10T22:53:41.216Z,3.76
2019-05-10T22:58:50.271Z,3.95
2019-05-10T23:03:59.386Z,3.94
2019-05-10T23:09:23.600Z,4.35
2019-05-10T23:14:17.323Z,4.76
2019-05-10T23:19:26.409Z,4.05
2019-05-10T23:24:35.559Z,4.12
2019-05-10T23:29:44.643Z,4.30
2019-05-10T23:34:53.778Z,4.12
2019-05-10T23:40:02.858Z,3.95
2019-05-10T23:45:12.013Z,4.01
2019-05-10T23:50:21.113Z,3.73
2019-05-10T23:55:30.281Z,3.78
